Westfield, NJ (07090)

5:39 PM EST on November 27, 2014 (GMT -0500)
Garwood | Change Station
CLOSE
Current Station
Personal Weather Station
Location: Garwood, NJ
Elevation: 102 ft
Nearby Weather Stations

Elev 102 ft 40.65 °N, 74.33 °W | Updated 4 minutes ago

Overcast
Overcast
33.4 °F
Feels Like 33 °F
N
0.0
Wind Variable Wind from SW

Today
High -- | Low -- °F
--% Chance of Precip.
Yesterday
High -- | Low -- °F
Precip. -- in
6:57 AM 4:32 PM
Waxing Crescent, 33% visible
Pressure 30.04 in
Visibility 10.0 miles
Clouds Scattered Clouds 3300 ft
Windchill 33 °F
Dew Point 30 °F
Humidity 89%
Rainfall 0.36 in
Snow Depth Not available.
UV 0 out of 12
Pollen .10 out of 12
Air Quality Not available.
Flu Activity Not available.
METAR KLDJ 272215Z AUTO 31006KT 10SM SCT033 04/01 A3004 RMK AO2 T00410005

More Conditions Fewer Conditions

Pressure 30.04 in
Visibility 10.0 miles
Clouds Scattered Clouds 3300 ft
Windchill 33 °F
Dew Point 30 °F
Humidity 89%
Rainfall 0.36 in
Snow Depth Not available.
UV 0 out of 12
Pollen .10 out of 12
Air Quality Not available.
Flu Activity Not available.
METAR KLDJ 272215Z AUTO 31006KT 10SM SCT033 04/01 A3004 RMK AO2 T00410005

More Conditions Fewer Conditions

10-Day Weather Forecast

Almanac

Astronomy

Nov. 27, 2014 Rise Set
Actual Time
Civil Twilight
Nautical Twilight
Astronomical Twilight
Moon
Length of Visible Light
Length of Day
Tomorrow will be .
, % of the Moon is Illuminated

Today's Extremes

State Highs State Lows

Community

WunderPhotos

Upload Photos

1,774,125 photos uploaded!

WunderBlogs® & News

Nearby

Air Quality

  Air Quality AQ Index Pollutant
Not available.

Snow Depth

Station Depth Elevation

Earthquake Activity

City Distance Mag. Time & Date
Minimum magnitude displayed is 2.5.

Coastal Water Temperatures

Place Temperature

Nearby Weather Stations